Time;durP1;ratioP1;P1;durP2;ratioP2;P2;SDS_P1;SDS_P2;PMS_P1;PMS_P2;Temp;Humidity;BMP_temperature;BMP_pressure;BME280_temperature;BME280_humidity;BME280_pressure;Samples;Min_cycle;Max_cycle;Signal;HPM_P1;HPM_P2
2021/07/17 00:02:48;;;;;;;4.63;4.23;;;22.90;82.30;;;;;;6352013;28;20225;-74
2021/07/17 00:05:51;;;;;;;4.23;3.93;;;22.90;81.70;;;;;;6353949;28;20221;-74
2021/07/17 00:08:55;;;;;;;4.27;3.87;;;22.90;81.10;;;;;;6354897;27;20236;-75
2021/07/17 00:11:58;;;;;;;3.73;3.50;;;22.90;81.30;;;;;;6354337;28;20236;-64
2021/07/17 00:15:04;;;;;;;3.97;3.43;;;22.90;81.40;;;;;;6351217;28;20245;-64
2021/07/17 00:18:09;;;;;;;4.97;4.47;;;23.00;81.30;;;;;;6352182;28;20578;-64
2021/07/17 00:21:13;;;;;;;4.70;4.30;;;23.00;80.90;;;;;;6352364;28;20226;-64
2021/07/17 00:24:19;;;;;;;4.27;3.87;;;23.00;80.90;;;;;;6342600;28;20312;-72
2021/07/17 00:27:24;;;;;;;4.93;4.40;;;23.00;81.00;;;;;;6352347;27;20830;-59
2021/07/17 00:30:34;;;;;;;4.67;4.27;;;22.90;80.20;;;;;;6355219;27;20657;-61
2021/07/17 00:33:37;;;;;;;4.50;4.00;;;23.00;79.40;;;;;;6350973;28;20226;-61
2021/07/17 00:36:40;;;;;;;7.90;4.07;;;23.00;78.90;;;;;;6350506;27;20537;-62
2021/07/17 00:39:43;;;;;;;4.63;4.30;;;23.10;78.80;;;;;;6350817;28;20315;-61
2021/07/17 00:42:47;;;;;;;5.03;4.00;;;23.20;78.60;;;;;;6350911;28;20225;-61
2021/07/17 00:45:52;;;;;;;4.43;4.13;;;23.20;77.90;;;;;;6350493;28;20583;-62
2021/07/17 00:48:55;;;;;;;4.77;4.37;;;23.30;78.00;;;;;;6350526;28;20240;-61
2021/07/17 00:51:58;;;;;;;9.53;3.80;;;23.40;78.10;;;;;;6350550;28;20728;-61
2021/07/17 00:55:03;;;;;;;4.47;4.03;;;23.40;78.00;;;;;;6350146;28;20317;-61
2021/07/17 00:58:07;;;;;;;5.00;4.60;;;23.30;77.70;;;;;;6350707;28;20240;-62
2021/07/17 01:01:13;;;;;;;5.40;4.27;;;23.30;77.90;;;;;;6349675;28;20240;-61
2021/07/17 01:04:17;;;;;;;5.40;4.40;;;23.30;77.70;;;;;;6350423;28;20283;-61
2021/07/17 01:07:20;;;;;;;5.70;4.60;;;23.30;77.30;;;;;;6349988;28;20236;-61
2021/07/17 01:10:24;;;;;;;4.60;4.30;;;23.30;77.40;;;;;;6350323;28;20236;-61
2021/07/17 01:13:27;;;;;;;5.23;4.43;;;23.40;76.90;;;;;;6349706;28;20229;-61
2021/07/17 01:16:33;;;;;;;5.53;5.03;;;23.30;76.90;;;;;;6349447;27;20298;-62
2021/07/17 01:19:36;;;;;;;4.30;4.00;;;23.30;76.80;;;;;;6349935;27;20681;-62
2021/07/17 01:22:42;;;;;;;5.13;4.70;;;23.40;77.00;;;;;;6349534;27;20658;-62
2021/07/17 01:25:45;;;;;;;5.93;5.43;;;23.40;76.50;;;;;;6349663;27;20232;-61
2021/07/17 01:28:48;;;;;;;5.30;4.87;;;23.60;76.40;;;;;;6349890;27;20244;-62
2021/07/17 01:31:52;;;;;;;5.57;5.17;;;23.60;76.50;;;;;;6348521;27;20221;-61
2021/07/17 01:34:57;;;;;;;4.57;4.00;;;23.60;76.10;;;;;;6347765;27;20234;-62
2021/07/17 01:38:01;;;;;;;5.00;4.70;;;23.50;76.40;;;;;;6348279;27;20229;-62
2021/07/17 01:41:05;;;;;;;5.73;4.70;;;23.60;76.30;;;;;;6338387;27;20251;-61
2021/07/17 01:44:08;;;;;;;5.57;5.07;;;23.60;76.40;;;;;;6348055;27;20245;-62
2021/07/17 01:47:12;;;;;;;6.03;4.43;;;23.60;76.30;;;;;;6348856;27;20244;-62
2021/07/17 01:50:15;;;;;;;5.27;4.77;;;23.50;76.80;;;;;;6349848;27;20310;-61
2021/07/17 01:53:21;;;;;;;6.10;5.50;;;23.60;76.90;;;;;;6349346;27;20228;-61
2021/07/17 01:56:26;;;;;;;5.10;4.70;;;23.60;76.70;;;;;;6349406;27;20562;-62
2021/07/17 01:59:29;;;;;;;5.90;5.30;;;23.60;76.90;;;;;;6349628;27;20240;-73
2021/07/17 02:02:32;;;;;;;6.30;5.70;;;23.60;76.90;;;;;;6349416;27;20232;-64
2021/07/17 02:05:37;;;;;;;5.70;5.20;;;23.60;76.80;;;;;;6349364;27;20248;-62
2021/07/17 02:08:42;;;;;;;6.03;5.53;;;23.60;77.10;;;;;;6349349;27;20225;-59
2021/07/17 02:11:45;;;;;;;7.13;5.90;;;23.60;77.40;;;;;;6348827;27;20679;-64
2021/07/17 02:14:49;;;;;;;8.90;5.33;;;23.60;77.50;;;;;;6349147;27;20229;-59
2021/07/17 02:17:52;;;;;;;6.23;5.30;;;23.70;77.60;;;;;;6348821;27;20229;-75
2021/07/17 02:20:56;;;;;;;5.60;5.10;;;23.70;77.60;;;;;;6348924;27;20229;-75
2021/07/17 02:24:00;;;;;;;5.97;5.47;;;23.70;77.60;;;;;;6349348;27;20232;-75
2021/07/17 02:27:03;;;;;;;6.00;5.40;;;23.70;78.00;;;;;;6348823;27;20217;-75
2021/07/17 02:30:08;;;;;;;6.67;5.23;;;23.60;78.00;;;;;;6354220;27;20682;-74
2021/07/17 02:33:11;;;;;;;5.30;4.80;;;23.70;78.40;;;;;;6355052;27;20240;-74
2021/07/17 02:36:16;;;;;;;5.27;4.87;;;23.70;78.40;;;;;;6354470;27;20240;-74
2021/07/17 02:39:21;;;;;;;5.27;4.83;;;23.60;78.30;;;;;;6354199;27;20229;-73
2021/07/17 02:42:24;;;;;;;6.60;6.07;;;23.60;78.90;;;;;;6354241;27;20232;-74
2021/07/17 02:45:27;;;;;;;5.27;4.57;;;23.70;79.10;;;;;;6349222;27;20229;-73
2021/07/17 02:48:30;;;;;;;5.37;4.97;;;23.60;79.30;;;;;;6353619;27;20244;-74
2021/07/17 02:51:33;;;;;;;5.40;5.00;;;23.70;79.30;;;;;;6354736;27;20225;-75
2021/07/17 02:54:38;;;;;;;7.03;5.17;;;23.60;79.40;;;;;;6356913;27;20244;-73
2021/07/17 02:57:41;;;;;;;5.00;4.60;;;23.60;79.70;;;;;;6354941;27;20572;-74
2021/07/17 03:00:47;;;;;;;5.37;4.97;;;23.60;79.80;;;;;;6353342;27;20236;-74
2021/07/17 03:03:50;;;;;;;5.00;4.60;;;23.40;80.20;;;;;;6353346;27;20221;-75
2021/07/17 03:06:53;;;;;;;6.20;5.70;;;23.60;80.60;;;;;;6353066;27;20559;-75
2021/07/17 03:09:58;;;;;;;6.20;5.60;;;23.50;80.10;;;;;;6353703;27;20241;-75
2021/07/17 03:13:01;;;;;;;6.73;6.17;;;23.40;80.40;;;;;;6354929;27;20245;-75
2021/07/17 03:16:05;;;;;;;5.73;5.27;;;23.50;80.70;;;;;;6353129;27;20579;-75
2021/07/17 03:19:08;;;;;;;9.73;5.13;;;23.50;80.40;;;;;;6353577;27;20229;-74
2021/07/17 03:22:11;;;;;;;6.80;6.20;;;23.60;80.30;;;;;;6354105;27;20685;-74
2021/07/17 03:25:16;;;;;;;7.10;6.30;;;23.60;80.20;;;;;;6353926;27;20315;-75
2021/07/17 03:28:19;;;;;;;6.30;5.63;;;23.60;80.40;;;;;;6355731;27;20240;-75
2021/07/17 03:31:27;;;;;;;7.20;6.70;;;23.60;80.20;;;;;;6356483;27;20240;-74
2021/07/17 03:34:30;;;;;;;6.40;5.90;;;23.70;80.20;;;;;;6354884;27;20218;-74
2021/07/17 03:37:34;;;;;;;5.97;5.47;;;23.70;80.10;;;;;;6357313;27;20225;-74
2021/07/17 03:40:39;;;;;;;6.50;5.87;;;23.70;80.10;;;;;;6355217;27;20209;-75
2021/07/17 03:43:42;;;;;;;6.30;5.70;;;23.70;80.10;;;;;;6354540;27;20202;-76
2021/07/17 03:46:45;;;;;;;7.83;7.23;;;23.80;80.70;;;;;;6353387;27;20209;-75
2021/07/17 03:49:48;;;;;;;7.30;6.70;;;23.70;81.00;;;;;;6353584;27;20233;-74
2021/07/17 03:52:52;;;;;;;6.90;6.30;;;23.70;81.30;;;;;;6354381;27;20233;-75
2021/07/17 03:55:56;;;;;;;8.20;7.50;;;23.70;81.40;;;;;;6353685;27;20225;-75
2021/07/17 03:58:59;;;;;;;8.63;7.83;;;23.70;81.80;;;;;;6352043;27;20229;-73
2021/07/17 04:02:03;;;;;;;8.40;7.60;;;23.60;83.00;;;;;;6352293;27;20228;-73
2021/07/17 04:05:08;;;;;;;10.43;7.70;;;23.60;83.80;;;;;;6351991;27;20229;-74
2021/07/17 04:08:12;;;;;;;7.00;6.40;;;23.60;85.00;;;;;;6354229;27;20224;-73
2021/07/17 04:11:16;;;;;;;8.77;7.87;;;23.60;87.20;;;;;;6352870;27;20236;-73
2021/07/17 04:14:19;;;;;;;8.30;7.53;;;23.60;88.60;;;;;;6353548;27;20232;-74
2021/07/17 04:17:22;;;;;;;9.77;8.87;;;23.60;90.30;;;;;;6355966;27;20230;-74
2021/07/17 04:20:26;;;;;;;8.90;8.00;;;23.50;91.30;;;;;;6353272;27;20239;-73
2021/07/17 04:23:29;;;;;;;8.57;7.77;;;23.40;92.00;;;;;;6351836;27;20226;-74
2021/07/17 04:26:34;;;;;;;8.77;7.87;;;23.40;92.90;;;;;;6351798;27;20226;-74
2021/07/17 04:29:37;;;;;;;9.97;9.13;;;23.30;93.90;;;;;;6350413;27;20277;-73
2021/07/17 04:32:41;;;;;;;11.53;10.17;;;23.20;95.10;;;;;;6351898;27;20308;-73
2021/07/17 04:35:44;;;;;;;9.60;8.70;;;23.10;95.90;;;;;;6351039;27;20229;-73
2021/07/17 04:38:47;;;;;;;8.80;8.00;;;23.10;96.90;;;;;;6351363;28;20230;-73
2021/07/17 04:41:52;;;;;;;10.63;9.63;;;23.10;97.90;;;;;;6353039;28;20225;-73
2021/07/17 04:44:56;;;;;;;10.27;9.17;;;22.90;98.50;;;;;;6352463;27;20896;-72
2021/07/17 04:48:03;;;;;;;12.03;10.97;;;22.90;99.70;;;;;;6354180;27;20704;-73
2021/07/17 04:51:06;;;;;;;11.43;10.30;;;22.70;99.90;;;;;;6348360;28;20233;-73
2021/07/17 04:54:10;;;;;;;12.07;10.90;;;22.60;99.90;;;;;;6342258;27;20248;-73
2021/07/17 04:57:14;;;;;;;11.60;10.53;;;22.50;99.90;;;;;;6352656;27;20229;-73
2021/07/17 05:00:19;;;;;;;12.83;11.77;;;22.50;99.90;;;;;;6352244;27;20237;-73
2021/07/17 05:03:22;;;;;;;12.50;11.40;;;22.40;99.90;;;;;;6350870;27;20581;-72
2021/07/17 05:06:25;;;;;;;12.37;11.17;;;22.30;99.90;;;;;;6350562;27;20225;-72
2021/07/17 05:09:28;;;;;;;13.13;12.13;;;22.20;99.90;;;;;;6350168;27;20556;-73
2021/07/17 05:12:33;;;;;;;13.37;12.10;;;22.20;99.90;;;;;;6350059;27;20232;-72
2021/07/17 05:15:36;;;;;;;12.33;11.23;;;22.20;99.90;;;;;;6349972;27;20237;-73
2021/07/17 05:18:39;;;;;;;12.97;11.80;;;22.10;99.90;;;;;;6350240;27;20236;-73
2021/07/17 05:21:42;;;;;;;13.20;11.90;;;22.10;99.90;;;;;;6350417;27;20221;-73
2021/07/17 05:24:45;;;;;;;12.30;11.20;;;22.10;99.90;;;;;;6350202;27;20225;-73
2021/07/17 05:27:50;;;;;;;12.00;10.90;;;22.10;99.90;;;;;;6350669;27;20217;-73
2021/07/17 05:30:53;;;;;;;13.40;12.20;;;22.10;99.90;;;;;;6349964;27;20222;-73
2021/07/17 05:33:56;;;;;;;13.30;12.20;;;22.00;99.90;;;;;;6350041;27;20225;-74
2021/07/17 05:37:00;;;;;;;13.50;12.30;;;21.80;99.90;;;;;;6350112;27;20373;-73
2021/07/17 05:40:04;;;;;;;14.00;12.80;;;21.70;99.90;;;;;;6351384;27;20230;-73
2021/07/17 05:43:09;;;;;;;13.40;12.20;;;21.70;99.90;;;;;;6349485;27;20230;-73
2021/07/17 05:46:12;;;;;;;13.27;12.07;;;21.70;99.90;;;;;;6349799;27;20229;-72
2021/07/17 05:49:15;;;;;;;14.13;12.43;;;21.60;99.90;;;;;;6349267;27;20302;-72
2021/07/17 05:52:18;;;;;;;12.67;11.33;;;21.50;99.90;;;;;;6349199;27;20705;-73
2021/07/17 05:55:21;;;;;;;12.80;11.70;;;21.60;99.90;;;;;;6349377;27;20229;-73
2021/07/17 05:58:26;;;;;;;12.40;11.30;;;21.60;99.90;;;;;;6344469;27;20244;-73
2021/07/17 06:01:29;;;;;;;13.17;11.87;;;21.70;99.90;;;;;;6349177;27;20232;-72
2021/07/17 06:04:32;;;;;;;14.60;13.20;;;21.80;99.90;;;;;;6353705;27;20225;-73
2021/07/17 06:07:36;;;;;;;12.87;11.67;;;21.80;99.90;;;;;;6355778;27;20720;-72
2021/07/17 06:10:39;;;;;;;12.13;11.10;;;21.70;99.90;;;;;;6355183;27;20210;-73
2021/07/17 06:13:43;;;;;;;11.43;10.53;;;21.80;99.90;;;;;;6354909;27;20201;-73
2021/07/17 06:16:47;;;;;;;13.00;11.90;;;21.90;99.90;;;;;;6353857;27;20225;-73
2021/07/17 06:19:50;;;;;;;12.57;11.47;;;22.10;99.90;;;;;;6355695;27;20244;-73
2021/07/17 06:22:53;;;;;;;12.77;11.53;;;22.00;99.90;;;;;;6354009;27;20583;-73
2021/07/17 06:25:56;;;;;;;13.43;12.27;;;22.00;99.90;;;;;;6354288;27;20257;-73
2021/07/17 06:29:01;;;;;;;14.63;13.23;;;22.00;99.90;;;;;;6354061;27;20685;-73
2021/07/17 06:32:05;;;;;;;13.43;12.13;;;22.00;99.90;;;;;;6354066;27;20225;-74
2021/07/17 06:35:09;;;;;;;12.73;11.43;;;21.80;99.90;;;;;;6354081;27;20221;-72
2021/07/17 06:38:12;;;;;;;13.73;12.50;;;21.90;99.90;;;;;;6354067;27;20236;-74
2021/07/17 06:41:15;;;;;;;12.90;11.53;;;22.00;99.90;;;;;;6354113;27;20236;-73
2021/07/17 06:44:20;;;;;;;12.83;11.73;;;22.00;99.90;;;;;;6353554;27;20233;-73
2021/07/17 06:47:23;;;;;;;11.97;10.97;;;22.10;99.90;;;;;;6353955;27;20233;-73
2021/07/17 06:50:26;;;;;;;12.77;11.77;;;22.20;99.90;;;;;;6353715;27;20236;-73
2021/07/17 06:53:29;;;;;;;12.30;11.30;;;22.20;99.90;;;;;;6354286;27;20241;-73
2021/07/17 06:56:32;;;;;;;12.20;11.20;;;22.30;99.90;;;;;;6353515;27;20230;-73
2021/07/17 06:59:37;;;;;;;11.93;10.83;;;22.40;99.90;;;;;;6349909;27;20237;-73
2021/07/17 07:02:40;;;;;;;11.97;10.90;;;22.40;99.90;;;;;;6353775;27;20229;-72
2021/07/17 07:05:44;;;;;;;12.93;11.80;;;22.40;99.90;;;;;;6353466;27;20710;-73
2021/07/17 07:08:51;;;;;;;11.30;10.40;;;22.50;99.90;;;;;;6353553;27;20221;-73
2021/07/17 07:11:54;;;;;;;12.87;11.10;;;22.50;99.90;;;;;;6353729;27;20683;-71
2021/07/17 07:14:59;;;;;;;11.00;10.00;;;22.30;99.90;;;;;;6352774;27;20324;-71
2021/07/17 07:18:03;;;;;;;11.00;9.90;;;22.10;99.90;;;;;;6352893;27;20230;-72
2021/07/17 07:21:06;;;;;;;10.20;9.30;;;22.00;99.90;;;;;;6353447;27;20236;-73
2021/07/17 07:24:10;;;;;;;9.97;9.17;;;22.00;99.90;;;;;;6351549;27;20674;-73
2021/07/17 07:27:13;;;;;;;9.87;8.80;;;22.00;99.90;;;;;;6351492;27;20229;-72
2021/07/17 07:30:18;;;;;;;10.27;9.47;;;22.10;99.90;;;;;;6352222;28;20234;-72
2021/07/17 07:33:22;;;;;;;10.73;9.63;;;22.10;99.90;;;;;;6355284;27;20233;-73
2021/07/17 07:36:26;;;;;;;9.07;8.27;;;22.20;99.90;;;;;;6353043;27;20237;-73
2021/07/17 07:39:29;;;;;;;10.27;9.27;;;22.10;99.90;;;;;;6352763;27;20666;-75
2021/07/17 07:42:32;;;;;;;10.27;9.23;;;22.20;99.90;;;;;;6353554;28;20229;-74
2021/07/17 07:45:37;;;;;;;10.00;8.90;;;22.20;99.90;;;;;;6352806;28;20233;-74
2021/07/17 07:48:41;;;;;;;9.90;9.03;;;22.10;99.90;;;;;;6352186;28;20228;-74
2021/07/17 07:51:45;;;;;;;10.40;9.53;;;22.10;99.90;;;;;;6351983;28;20225;-75
2021/07/17 07:54:48;;;;;;;12.73;10.13;;;22.10;99.90;;;;;;6351800;28;20233;-73
2021/07/17 07:57:51;;;;;;;9.67;8.87;;;22.00;99.90;;;;;;6352461;28;20574;-73
2021/07/17 08:00:56;;;;;;;10.27;9.30;;;22.00;99.90;;;;;;6352077;28;20232;-73
2021/07/17 08:03:59;;;;;;;8.70;7.90;;;22.00;99.90;;;;;;6351805;28;20243;-74
2021/07/17 08:07:03;;;;;;;10.80;9.83;;;22.00;99.90;;;;;;6352049;27;20229;-74
2021/07/17 08:10:07;;;;;;;9.70;8.23;;;22.00;99.90;;;;;;6351343;28;20232;-73
2021/07/17 08:13:11;;;;;;;8.93;8.13;;;22.00;99.90;;;;;;6351956;28;20226;-73
2021/07/17 08:16:16;;;;;;;10.43;9.43;;;21.90;99.90;;;;;;6351059;28;20290;-73
2021/07/17 08:19:19;;;;;;;8.90;8.13;;;21.90;99.90;;;;;;6351796;28;20254;-73
2021/07/17 08:22:23;;;;;;;11.13;9.30;;;22.00;99.90;;;;;;6352375;28;20257;-74
2021/07/17 08:25:26;;;;;;;9.77;8.90;;;22.10;99.90;;;;;;6350832;28;20229;-74
2021/07/17 08:28:29;;;;;;;9.17;8.10;;;22.10;99.90;;;;;;6351384;28;20229;-73
2021/07/17 08:31:33;;;;;;;8.77;7.87;;;22.20;99.90;;;;;;6351028;28;20225;-74
2021/07/17 08:34:37;;;;;;;8.80;8.00;;;22.40;99.90;;;;;;6325886;28;20226;-73
2021/07/17 08:37:40;;;;;;;8.90;7.97;;;22.70;99.90;;;;;;6325883;28;20202;-74
2021/07/17 08:40:52;;;;;;;10.33;9.03;;;22.80;99.90;;;;;;6325990;28;20229;-74
2021/07/17 08:43:56;;;;;;;8.43;7.73;;;23.00;99.90;;;;;;6326801;28;20237;-73
2021/07/17 08:47:03;;;;;;;8.63;7.87;;;23.20;99.90;;;;;;6325514;28;20226;-75
2021/07/17 08:50:08;;;;;;;7.43;6.77;;;23.40;99.90;;;;;;6325626;28;20615;-74
2021/07/17 08:53:12;;;;;;;8.10;7.40;;;23.60;99.90;;;;;;6325512;28;20222;-74
2021/07/17 08:56:16;;;;;;;6.93;6.37;;;23.70;99.90;;;;;;6325251;28;20225;-73
2021/07/17 08:59:19;;;;;;;7.10;6.47;;;23.80;99.90;;;;;;6325238;28;20675;-73
2021/07/17 09:02:24;;;;;;;7.03;6.53;;;23.90;99.90;;;;;;6325737;28;20226;-74
2021/07/17 09:05:30;;;;;;;7.23;6.53;;;24.00;99.90;;;;;;6326196;28;20268;-73
2021/07/17 09:08:33;;;;;;;6.60;6.10;;;24.10;99.90;;;;;;6314796;28;20232;-74
2021/07/17 09:11:39;;;;;;;6.83;6.23;;;24.30;99.90;;;;;;6325145;28;20233;-74
2021/07/17 09:14:44;;;;;;;6.57;5.97;;;24.40;99.90;;;;;;6334329;28;20240;-74
2021/07/17 09:17:54;;;;;;;7.87;7.17;;;24.50;99.90;;;;;;6339606;28;20737;-76
2021/07/17 09:21:01;;;;;;;6.17;5.67;;;24.50;99.90;;;;;;6323940;28;20331;-74
2021/07/17 09:24:08;;;;;;;5.97;5.47;;;24.70;99.90;;;;;;6323805;28;20687;-74
2021/07/17 09:27:21;;;;;;;7.07;6.00;;;24.80;99.90;;;;;;6338687;28;20726;-73
2021/07/17 09:30:32;;;;;;;6.53;5.93;;;24.80;99.90;;;;;;6331080;27;20215;-74
2021/07/17 09:33:38;;;;;;;6.07;5.47;;;24.80;99.90;;;;;;6323770;28;20214;-73
2021/07/17 09:36:51;;;;;;;6.57;6.00;;;24.80;99.90;;;;;;6323826;28;20229;-73
2021/07/17 09:39:54;;;;;;;6.83;6.20;;;24.70;99.90;;;;;;6344606;28;20233;-74
2021/07/17 09:42:57;;;;;;;6.07;5.57;;;24.80;99.90;;;;;;6329621;28;20229;-74
2021/07/17 09:46:02;;;;;;;6.80;6.20;;;24.80;99.90;;;;;;6324350;28;20580;-73
2021/07/17 09:49:06;;;;;;;5.00;4.60;;;24.80;99.90;;;;;;6324397;28;20226;-73
2021/07/17 09:52:11;;;;;;;4.90;4.47;;;24.70;99.90;;;;;;6324106;28;20225;-74
2021/07/17 09:55:18;;;;;;;5.47;5.07;;;24.80;99.90;;;;;;6324623;28;20241;-73
2021/07/17 09:58:31;;;;;;;5.23;4.83;;;24.70;99.90;;;;;;6346883;28;20308;-73
2021/07/17 10:01:37;;;;;;;5.17;4.67;;;24.80;99.90;;;;;;6323225;28;20221;-75
2021/07/17 10:04:49;;;;;;;20.27;5.97;;;24.90;99.90;;;;;;6323690;28;20215;-74
2021/07/17 10:08:12;;;;;;;4.57;4.17;;;25.00;99.90;;;;;;6324953;28;20226;-74
2021/07/17 10:11:23;;;;;;;5.10;4.60;;;24.90;99.90;;;;;;6319608;28;20227;-60
2021/07/17 10:14:30;;;;;;;5.17;4.37;;;24.90;99.90;;;;;;6324112;28;20230;-64
2021/07/17 10:17:37;;;;;;;5.90;4.47;;;24.90;99.90;;;;;;6323419;28;20242;-65
2021/07/17 10:20:42;;;;;;;4.43;4.03;;;24.80;99.90;;;;;;6324091;28;20232;-65
2021/07/17 10:23:46;;;;;;;5.73;4.93;;;24.70;99.90;;;;;;6323421;28;20226;-65
2021/07/17 10:26:51;;;;;;;6.27;5.37;;;24.40;99.90;;;;;;6323693;28;20691;-64
2021/07/17 10:29:54;;;;;;;5.50;4.93;;;24.00;99.90;;;;;;6323240;28;20612;-64
2021/07/17 10:32:59;;;;;;;5.70;5.20;;;23.90;99.90;;;;;;6323825;28;20249;-64
2021/07/17 10:36:08;;;;;;;5.77;4.00;;;23.90;99.90;;;;;;6323558;28;20245;-65
2021/07/17 10:39:12;;;;;;;4.20;3.53;;;23.80;99.90;;;;;;6323574;28;20226;-65
2021/07/17 10:42:19;;;;;;;4.77;4.37;;;23.60;99.90;;;;;;6337263;28;20225;-73
2021/07/17 10:45:34;;;;;;;4.50;4.10;;;23.50;99.90;;;;;;6332800;28;20230;-73
2021/07/17 10:48:37;;;;;;;5.00;4.60;;;23.40;99.90;;;;;;6322986;28;20366;-74
2021/07/17 10:51:50;;;;;;;4.30;4.00;;;23.30;99.90;;;;;;6345848;28;20539;-74
2021/07/17 10:54:53;;;;;;;4.27;3.87;;;23.30;99.90;;;;;;6329928;28;20241;-74
2021/07/17 10:58:00;;;;;;;4.90;4.50;;;23.30;99.90;;;;;;6327707;28;20221;-74
2021/07/17 11:01:03;;;;;;;4.97;4.23;;;23.20;99.90;;;;;;6327893;28;20245;-74
2021/07/17 11:04:39;;;;;;;5.67;4.30;;;23.10;99.90;;;;;;6328837;28;20309;-74
2021/07/17 11:07:51;;;;;;;4.30;3.90;;;23.30;99.90;;;;;;6329187;28;20553;-74
2021/07/17 11:10:54;;;;;;;4.40;4.00;;;23.40;99.90;;;;;;6349199;27;20215;-73
2021/07/17 11:14:19;;;;;;;4.00;3.70;;;23.40;99.90;;;;;;6324213;28;20240;-72
2021/07/17 11:17:43;;;;;;;6.17;4.00;;;23.50;99.90;;;;;;6321970;28;20226;-72
2021/07/17 11:20:46;;;;;;;7.70;3.90;;;23.50;99.90;;;;;;6332796;28;20218;-70
2021/07/17 11:23:51;;;;;;;3.90;3.50;;;23.50;99.90;;;;;;6325430;28;20287;-65
2021/07/17 11:27:09;;;;;;;4.60;4.20;;;23.50;99.90;;;;;;6322980;28;20230;-62
2021/07/17 11:30:17;;;;;;;3.97;3.60;;;23.40;99.90;;;;;;6323279;28;20229;-61
2021/07/17 11:33:20;;;;;;;3.53;3.27;;;23.40;99.90;;;;;;6310201;28;20679;-61
2021/07/17 11:36:27;;;;;;;5.70;4.17;;;23.40;99.90;;;;;;6326681;28;20230;-62
2021/07/17 11:39:34;;;;;;;4.13;3.73;;;23.20;99.90;;;;;;6339523;28;20581;-61
2021/07/17 11:42:40;;;;;;;4.27;3.80;;;23.10;99.90;;;;;;6332397;28;20238;-61
2021/07/17 11:45:43;;;;;;;4.27;3.70;;;22.90;99.90;;;;;;6325011;28;20253;-61
2021/07/17 11:49:01;;;;;;;4.83;4.27;;;22.80;99.90;;;;;;6325197;28;20214;-61
2021/07/17 11:52:07;;;;;;;4.57;4.17;;;22.70;99.90;;;;;;6344169;28;20226;-61
2021/07/17 11:55:14;;;;;;;3.83;3.53;;;22.60;99.90;;;;;;6326840;28;20222;-66
2021/07/17 11:58:19;;;;;;;4.20;3.83;;;22.50;99.90;;;;;;6327484;28;20734;-67
2021/07/17 12:01:23;;;;;;;4.90;4.50;;;22.40;99.90;;;;;;6347077;28;20690;-67
2021/07/17 12:04:30;;;;;;;3.90;3.60;;;22.30;99.90;;;;;;6322921;28;20226;-61
2021/07/17 12:07:36;;;;;;;4.83;4.33;;;22.10;99.90;;;;;;6322823;28;20834;-61
2021/07/17 12:10:41;;;;;;;4.57;4.17;;;22.00;99.90;;;;;;6323387;28;20198;-61
2021/07/17 12:13:44;;;;;;;5.53;5.13;;;21.70;99.90;;;;;;6325897;28;20198;-61
2021/07/17 12:16:47;;;;;;;8.87;5.07;;;21.50;99.90;;;;;;6325039;28;20653;-60
2021/07/17 12:20:02;;;;;;;4.80;3.90;;;21.30;99.90;;;;;;6316021;28;20539;-61
2021/07/17 12:23:08;;;;;;;6.10;4.20;;;21.30;99.90;;;;;;6344926;27;20250;-61
2021/07/17 12:26:18;;;;;;;6.17;4.27;;;21.20;99.90;;;;;;6325813;28;20240;-60
2021/07/17 12:29:22;;;;;;;4.90;4.50;;;21.20;99.90;;;;;;6317401;28;20245;-60
2021/07/17 12:32:25;;;;;;;4.70;4.30;;;21.30;99.90;;;;;;6308107;28;20240;-60
2021/07/17 12:35:28;;;;;;;4.70;4.30;;;21.30;99.90;;;;;;6317612;28;20794;-60
2021/07/17 12:38:34;;;;;;;7.27;4.70;;;21.30;99.90;;;;;;6300289;28;20223;-61
2021/07/17 12:41:38;;;;;;;4.83;4.40;;;21.40;99.90;;;;;;6321964;28;20239;-64
2021/07/17 12:44:42;;;;;;;5.10;4.00;;;21.60;99.90;;;;;;6321569;28;20245;-64
2021/07/17 12:47:48;;;;;;;4.23;3.83;;;21.50;99.90;;;;;;6335653;28;20229;-64
2021/07/17 12:51:09;;;;;;;4.67;3.80;;;21.30;99.90;;;;;;6339049;27;20218;-64
2021/07/17 12:54:15;;;;;;;5.40;4.30;;;21.50;99.90;;;;;;6325297;28;20238;-64
2021/07/17 12:57:20;;;;;;;4.20;3.80;;;21.80;99.90;;;;;;6300091;28;20227;-63
2021/07/17 13:00:23;;;;;;;5.37;4.83;;;22.00;99.90;;;;;;6321156;28;20567;-62
2021/07/17 13:03:27;;;;;;;4.23;3.90;;;22.30;99.90;;;;;;6324435;28;20710;-63
2021/07/17 13:06:30;;;;;;;4.87;4.43;;;22.40;99.90;;;;;;6324769;28;20252;-63
2021/07/17 13:09:36;;;;;;;4.63;4.23;;;22.60;99.90;;;;;;6324532;28;20710;-62
2021/07/17 13:12:41;;;;;;;4.43;4.13;;;22.70;99.90;;;;;;6318638;28;20229;-62
2021/07/17 13:15:53;;;;;;;3.67;3.13;;;22.70;99.90;;;;;;6335665;28;20314;-62
2021/07/17 13:18:56;;;;;;;4.43;3.70;;;22.80;99.90;;;;;;6304415;28;20237;-62
2021/07/17 13:22:05;;;;;;;5.03;3.50;;;22.90;99.90;;;;;;6298792;28;20557;-63
2021/07/17 13:25:29;;;;;;;4.80;3.47;;;22.80;99.90;;;;;;6290231;28;20699;-63
2021/07/17 13:28:33;;;;;;;3.80;3.50;;;22.90;99.90;;;;;;6298469;28;20231;-63
2021/07/17 13:31:36;;;;;;;4.57;3.53;;;23.00;99.90;;;;;;6299749;28;20219;-64
2021/07/17 13:34:40;;;;;;;3.40;3.03;;;23.10;99.90;;;;;;6322736;28;20706;-64
2021/07/17 13:37:44;;;;;;;5.53;3.50;;;23.20;99.90;;;;;;6299411;28;20214;-64
2021/07/17 13:40:51;;;;;;;2.67;2.47;;;23.20;99.90;;;;;;6298950;28;20203;-64
2021/07/17 13:44:12;;;;;;;3.50;3.20;;;23.40;99.90;;;;;;6298883;28;20679;-65
2021/07/17 13:47:17;;;;;;;3.40;3.00;;;23.50;99.90;;;;;;6298405;28;20230;-63
2021/07/17 13:50:28;;;;;;;6.60;3.03;;;23.70;99.90;;;;;;6299102;28;20241;-62
2021/07/17 13:53:31;;;;;;;3.63;2.37;;;24.00;99.90;;;;;;6306387;28;20226;-63
2021/07/17 13:56:37;;;;;;;3.50;2.40;;;24.10;99.90;;;;;;6342387;28;20713;-63
2021/07/17 13:59:41;;;;;;;3.60;3.30;;;24.10;99.90;;;;;;6349018;28;20315;-62
2021/07/17 14:02:47;;;;;;;2.77;2.37;;;24.20;99.90;;;;;;6349266;28;20244;-63
2021/07/17 14:05:53;;;;;;;3.20;2.30;;;24.30;99.90;;;;;;6348887;28;20229;-63
2021/07/17 14:08:57;;;;;;;3.63;2.63;;;24.50;99.90;;;;;;6349001;28;20571;-63
2021/07/17 14:12:00;;;;;;;3.20;2.67;;;24.50;99.90;;;;;;6348654;28;20738;-64
2021/07/17 14:15:08;;;;;;;3.07;1.93;;;24.50;99.90;;;;;;6348609;28;20587;-63
2021/07/17 14:18:12;;;;;;;3.17;2.87;;;24.50;99.90;;;;;;6339675;28;20249;-62
2021/07/17 14:21:16;;;;;;;2.83;2.47;;;24.50;99.90;;;;;;6307485;28;20226;-64
2021/07/17 14:24:19;;;;;;;5.73;2.50;;;24.30;99.90;;;;;;6298920;28;20237;-62
2021/07/17 14:27:22;;;;;;;2.67;2.47;;;24.20;99.90;;;;;;6301567;28;20230;-62
2021/07/17 14:30:27;;;;;;;3.43;2.03;;;24.10;99.90;;;;;;6301634;28;20230;-62
2021/07/17 14:33:30;;;;;;;3.97;2.73;;;24.00;99.90;;;;;;6318157;28;20238;-63
2021/07/17 14:36:34;;;;;;;2.90;2.70;;;23.80;99.90;;;;;;6309954;28;20237;-62
2021/07/17 14:39:37;;;;;;;3.90;2.43;;;23.70;99.90;;;;;;6301145;28;20237;-62
2021/07/17 14:42:40;;;;;;;3.07;2.77;;;23.70;99.90;;;;;;6302555;28;20226;-64
2021/07/17 14:45:47;;;;;;;2.90;2.53;;;23.80;99.90;;;;;;6302349;28;20238;-62
2021/07/17 14:48:50;;;;;;;2.77;2.57;;;23.80;99.90;;;;;;6321958;28;20244;-63
2021/07/17 14:51:53;;;;;;;3.23;2.93;;;23.90;99.90;;;;;;6308220;28;20230;-62
2021/07/17 14:54:57;;;;;;;2.57;2.40;;;23.90;99.90;;;;;;6307615;28;20222;-65
2021/07/17 14:58:01;;;;;;;2.57;2.37;;;23.90;99.90;;;;;;6327376;28;20234;-66
2021/07/17 15:01:05;;;;;;;3.47;2.40;;;23.90;99.90;;;;;;6328174;28;20230;-66
2021/07/17 15:04:09;;;;;;;3.87;2.40;;;24.00;99.90;;;;;;6327538;28;20695;-64
2021/07/17 15:07:12;;;;;;;2.97;2.77;;;24.10;99.90;;;;;;6328365;28;20226;-65
2021/07/17 15:10:15;;;;;;;2.93;2.63;;;24.30;99.90;;;;;;6328011;28;20226;-64
2021/07/17 15:13:19;;;;;;;2.50;2.30;;;24.40;99.90;;;;;;6328219;28;20228;-64
2021/07/17 15:16:24;;;;;;;3.10;2.80;;;24.50;99.80;;;;;;6327624;28;20560;-63
2021/07/17 15:19:27;;;;;;;2.87;2.60;;;24.50;99.60;;;;;;6351836;28;20262;-64
2021/07/17 15:22:30;;;;;;;3.47;2.80;;;24.50;99.90;;;;;;6313132;27;20227;-63
2021/07/17 15:25:34;;;;;;;3.50;2.50;;;24.50;99.90;;;;;;6301725;28;20230;-63
2021/07/17 15:28:37;;;;;;;2.33;2.13;;;24.50;99.40;;;;;;6294602;28;20671;-64
2021/07/17 15:31:43;;;;;;;4.30;3.27;;;24.50;99.60;;;;;;6352039;27;20201;-63
2021/07/17 15:34:46;;;;;;;3.47;2.80;;;24.60;99.60;;;;;;6327065;28;20573;-64
2021/07/17 15:37:49;;;;;;;3.27;3.07;;;24.70;99.40;;;;;;6325887;28;20198;-62
2021/07/17 15:40:52;;;;;;;5.40;3.73;;;24.60;99.60;;;;;;6327012;28;20217;-64
2021/07/17 15:43:58;;;;;;;3.03;2.83;;;24.60;99.80;;;;;;6329140;28;20230;-63
2021/07/17 15:47:03;;;;;;;3.13;2.90;;;24.40;99.90;;;;;;6348710;28;20226;-64
2021/07/17 15:50:09;;;;;;;3.53;2.80;;;24.40;99.60;;;;;;6328210;28;20597;-63
2021/07/17 15:53:21;;;;;;;4.07;2.57;;;24.30;99.50;;;;;;6327368;28;20218;-66
2021/07/17 15:56:25;;;;;;;4.10;3.30;;;24.20;99.10;;;;;;6333734;28;20229;-69
2021/07/17 15:59:31;;;;;;;4.60;3.67;;;24.20;99.60;;;;;;6331509;28;20583;-68